createdAt,value
2022-09-17T00:00:48.886Z,10.20
2022-09-17T00:03:16.100Z,10.20
2022-09-17T00:05:43.815Z,10.20
2022-09-17T00:08:14.842Z,10.20
2022-09-17T00:10:43.315Z,10.20
2022-09-17T00:13:10.858Z,10.20
2022-09-17T00:15:42.947Z,10.20
2022-09-17T00:18:09.951Z,10.20
2022-09-17T00:20:42.141Z,10.20
2022-09-17T00:23:10.010Z,10.20
2022-09-17T00:25:41.422Z,10.20
2022-09-17T00:28:08.145Z,10.20
2022-09-17T00:30:34.895Z,10.20
2022-09-17T00:33:01.646Z,10.20
2022-09-17T00:35:28.512Z,10.20
2022-09-17T00:37:55.134Z,10.10
2022-09-17T00:40:21.925Z,10.20
2022-09-17T00:42:48.613Z,10.10
2022-09-17T00:45:15.302Z,10.10
2022-09-17T00:47:46.606Z,10.10
2022-09-17T00:50:21.316Z,10.10
2022-09-17T00:52:55.325Z,10.00
2022-09-17T00:55:26.513Z,10.10
2022-09-17T00:57:56.427Z,10.00
2022-09-17T01:00:23.136Z,10.00
2022-09-17T01:02:49.999Z,10.00
2022-09-17T01:05:16.974Z,10.00
2022-09-17T01:08:01.974Z,10.10
2022-09-17T01:10:57.920Z,10.00
2022-09-17T01:13:44.731Z,10.00
2022-09-17T01:16:14.260Z,10.00
2022-09-17T01:18:59.319Z,10.00
2022-09-17T01:21:34.244Z,10.00
2022-09-17T01:24:42.112Z,10.00
2022-09-17T01:27:33.297Z,10.00
2022-09-17T01:30:17.956Z,10.00
2022-09-17T01:33:15.648Z,10.10
2022-09-17T01:36:00.738Z,10.10
2022-09-17T01:38:36.052Z,10.10
2022-09-17T01:41:20.111Z,10.10
2022-09-17T01:43:58.149Z,10.20
2022-09-17T01:46:32.423Z,10.20
2022-09-17T01:49:03.667Z,10.20
2022-09-17T01:51:38.171Z,10.20
2022-09-17T01:54:14.447Z,10.30
2022-09-17T01:56:48.587Z,10.30
2022-09-17T01:59:34.133Z,10.30
2022-09-17T02:02:26.464Z,10.30
2022-09-17T02:05:02.271Z,10.30
2022-09-17T02:07:31.794Z,10.30
2022-09-17T02:10:07.408Z,10.30
2022-09-17T02:12:44.922Z,10.40
2022-09-17T02:15:17.846Z,10.40
2022-09-17T02:17:55.896Z,10.40
2022-09-17T02:20:28.250Z,10.40
2022-09-17T02:23:02.655Z,10.40
2022-09-17T02:25:37.525Z,10.40
2022-09-17T02:28:13.277Z,10.40
2022-09-17T02:30:39.946Z,10.40
2022-09-17T02:33:09.836Z,10.40
2022-09-17T02:35:37.889Z,10.40
2022-09-17T02:38:04.548Z,10.40
2022-09-17T02:40:36.205Z,10.40
2022-09-17T02:43:18.433Z,10.40
2022-09-17T02:46:14.354Z,10.40
2022-09-17T02:49:10.029Z,10.40
2022-09-17T02:51:52.897Z,10.40
2022-09-17T02:54:25.688Z,10.40
2022-09-17T02:57:14.142Z,10.40
2022-09-17T03:00:05.366Z,10.40
2022-09-17T03:02:38.598Z,10.50
2022-09-17T03:05:08.047Z,10.50
2022-09-17T03:07:34.870Z,10.40
2022-09-17T03:10:01.447Z,10.50
2022-09-17T03:12:28.218Z,10.40
2022-09-17T03:14:54.846Z,10.50
2022-09-17T03:17:21.499Z,10.40
2022-09-17T03:19:48.168Z,10.50
2022-09-17T03:22:14.846Z,10.40
2022-09-17T03:24:41.551Z,10.40
2022-09-17T03:27:08.178Z,10.40
2022-09-17T03:29:34.783Z,10.40
2022-09-17T03:32:02.033Z,10.40
2022-09-17T03:34:28.626Z,10.40
2022-09-17T03:36:55.296Z,10.40
2022-09-17T03:39:21.966Z,10.40
2022-09-17T03:41:48.552Z,10.40
2022-09-17T03:44:15.512Z,10.40
2022-09-17T03:46:42.986Z,10.30
2022-09-17T03:49:09.753Z,10.30
2022-09-17T03:51:36.498Z,10.30
2022-09-17T03:54:03.362Z,10.30
2022-09-17T03:56:30.027Z,10.30
2022-09-17T03:59:00.678Z,10.30
2022-09-17T04:01:28.522Z,10.30
2022-09-17T04:03:55.895Z,10.30
2022-09-17T04:06:22.591Z,10.30
2022-09-17T04:08:49.270Z,10.30
2022-09-17T04:11:15.971Z,10.30
2022-09-17T04:13:42.586Z,10.30
2022-09-17T04:16:09.393Z,10.30
2022-09-17T04:18:35.993Z,10.30
2022-09-17T04:21:02.782Z,10.20
2022-09-17T04:23:29.440Z,10.20
2022-09-17T04:25:56.018Z,10.20
2022-09-17T04:28:22.612Z,10.20
2022-09-17T04:30:49.399Z,10.20
2022-09-17T04:33:16.171Z,10.20
2022-09-17T04:35:43.475Z,10.20
2022-09-17T04:38:10.325Z,10.20
2022-09-17T04:40:36.976Z,10.10
2022-09-17T04:43:04.094Z,10.10
2022-09-17T04:45:33.336Z,10.10
2022-09-17T04:48:00.362Z,10.10
2022-09-17T04:50:27.038Z,10.10
2022-09-17T04:52:53.635Z,10.10
2022-09-17T04:55:20.407Z,10.10
2022-09-17T04:57:52.038Z,10.10
2022-09-17T05:00:20.420Z,10.10
2022-09-17T05:02:49.484Z,10.00
2022-09-17T05:05:17.067Z,10.10
2022-09-17T05:07:43.939Z,10.00
2022-09-17T05:10:12.895Z,10.00
2022-09-17T05:12:39.567Z,10.00
2022-09-17T05:15:06.607Z,10.00
2022-09-17T05:17:33.415Z,10.00
2022-09-17T05:20:00.024Z,10.00
2022-09-17T05:22:26.677Z,9.90
2022-09-17T05:24:53.318Z,9.90
2022-09-17T05:27:19.927Z,9.90
2022-09-17T05:29:46.687Z,9.90
2022-09-17T05:32:13.419Z,9.90
2022-09-17T05:34:40.506Z,9.90
2022-09-17T05:37:10.284Z,9.90
2022-09-17T05:39:37.070Z,9.90
2022-09-17T05:42:03.797Z,9.90
2022-09-17T05:44:30.385Z,10.00
2022-09-17T05:46:57.054Z,9.90
2022-09-17T05:49:23.769Z,10.00
2022-09-17T05:51:51.811Z,10.00
2022-09-17T05:54:18.497Z,9.90
2022-09-17T05:56:45.161Z,10.00
2022-09-17T05:59:12.528Z,10.00
2022-09-17T06:01:39.242Z,10.00
2022-09-17T06:04:05.910Z,10.00
2022-09-17T06:06:32.743Z,10.00
2022-09-17T06:09:00.500Z,10.00
2022-09-17T06:11:27.142Z,10.00
2022-09-17T06:13:54.766Z,10.10
2022-09-17T06:16:23.081Z,10.10
2022-09-17T06:18:55.555Z,10.10
2022-09-17T06:21:22.920Z,10.20
2022-09-17T06:23:50.556Z,10.20
2022-09-17T06:26:17.820Z,10.30
2022-09-17T06:28:45.025Z,10.30
2022-09-17T06:31:13.099Z,10.30
2022-09-17T06:33:39.948Z,10.40
2022-09-17T06:36:13.338Z,10.40
2022-09-17T06:38:41.298Z,10.50
2022-09-17T06:41:08.124Z,10.50
2022-09-17T06:43:34.764Z,10.50
2022-09-17T06:46:03.432Z,10.60
2022-09-17T06:48:30.874Z,10.60
2022-09-17T06:51:03.866Z,10.60
2022-09-17T06:53:31.260Z,10.60
2022-09-17T06:56:03.649Z,10.60
2022-09-17T06:58:32.841Z,10.70
2022-09-17T07:01:03.897Z,10.70
2022-09-17T07:03:31.403Z,10.80
2022-09-17T07:05:58.336Z,11.10
2022-09-17T07:08:26.121Z,11.20
2022-09-17T07:10:56.591Z,11.40
2022-09-17T07:13:23.605Z,11.70
2022-09-17T07:15:58.770Z,11.80
2022-09-17T07:18:26.351Z,11.90
2022-09-17T07:20:56.689Z,11.80
2022-09-17T07:23:24.631Z,11.80
2022-09-17T07:25:52.558Z,11.70
2022-09-17T07:28:19.560Z,11.70
2022-09-17T07:30:46.314Z,11.80
2022-09-17T07:33:12.915Z,11.80
2022-09-17T07:35:39.654Z,11.80
2022-09-17T07:38:06.299Z,11.80
2022-09-17T07:40:32.983Z,11.80
2022-09-17T07:42:59.615Z,11.80
2022-09-17T07:45:26.314Z,11.80
2022-09-17T07:47:52.943Z,11.90
2022-09-17T07:50:19.596Z,11.90
2022-09-17T07:52:49.231Z,11.90
2022-09-17T07:55:16.585Z,12.10
2022-09-17T07:57:43.180Z,12.20
2022-09-17T08:00:10.416Z,12.40
2022-09-17T08:02:37.104Z,12.60
2022-09-17T08:05:04.107Z,12.70
2022-09-17T08:07:30.735Z,12.90
2022-09-17T08:09:57.382Z,12.90
2022-09-17T08:12:23.979Z,12.70
2022-09-17T08:14:50.661Z,12.70
2022-09-17T08:17:17.352Z,12.60
2022-09-17T08:19:43.989Z,12.60
2022-09-17T08:22:10.676Z,12.60
2022-09-17T08:24:37.283Z,12.70
2022-09-17T08:27:04.018Z,12.70
2022-09-17T08:29:34.980Z,12.70
2022-09-17T08:32:02.334Z,12.60
2022-09-17T08:34:29.012Z,12.70
2022-09-17T08:36:56.053Z,12.90
2022-09-17T08:39:22.651Z,13.00
2022-09-17T08:42:11.602Z,13.20
2022-09-17T08:44:46.050Z,13.60
2022-09-17T08:47:14.903Z,14.00
2022-09-17T08:49:58.118Z,14.30
2022-09-17T08:52:49.900Z,14.40
2022-09-17T08:55:23.411Z,14.60
2022-09-17T08:58:02.870Z,14.60
2022-09-17T09:00:39.527Z,14.50
2022-09-17T09:04:02.117Z,14.20
2022-09-17T09:06:34.350Z,14.00
2022-09-17T09:09:05.431Z,13.60
2022-09-17T09:11:32.396Z,13.40
2022-09-17T09:14:16.332Z,13.30
2022-09-17T09:16:45.871Z,13.20
2022-09-17T09:19:18.343Z,12.90
2022-09-17T09:22:04.948Z,12.80
2022-09-17T09:24:57.460Z,12.80
2022-09-17T09:27:32.712Z,13.00
2022-09-17T09:30:07.448Z,13.40
2022-09-17T09:32:43.651Z,13.70
2022-09-17T09:35:32.794Z,13.90
2022-09-17T09:38:08.823Z,14.00
2022-09-17T09:41:03.101Z,14.00
2022-09-17T09:44:04.661Z,13.80
2022-09-17T09:46:47.772Z,13.70
2022-09-17T09:49:30.551Z,13.40
2022-09-17T09:52:19.033Z,13.40
2022-09-17T09:55:03.675Z,13.70
2022-09-17T09:57:42.243Z,14.00
2022-09-17T10:00:42.665Z,14.00
2022-09-17T10:03:23.167Z,13.80
2022-09-17T10:06:01.090Z,13.70
2022-09-17T10:08:30.791Z,14.00
2022-09-17T10:10:59.162Z,14.30
2022-09-17T10:13:27.062Z,14.50
2022-09-17T10:15:54.192Z,14.50
2022-09-17T10:18:23.107Z,14.70
2022-09-17T10:21:01.054Z,14.80
2022-09-17T10:23:36.564Z,14.80
2022-09-17T10:26:03.767Z,14.70
2022-09-17T10:28:43.748Z,14.80
2022-09-17T10:31:10.908Z,15.00
2022-09-17T10:34:00.537Z,15.10
2022-09-17T10:36:46.899Z,15.10
2022-09-17T10:39:34.448Z,15.30
2022-09-17T10:42:05.141Z,15.50
2022-09-17T10:44:34.640Z,15.50
2022-09-17T10:47:06.014Z,15.60
2022-09-17T10:49:37.951Z,15.60
2022-09-17T10:52:06.128Z,15.70
2022-09-17T10:54:51.468Z,15.60
2022-09-17T10:57:49.243Z,15.30
2022-09-17T11:00:22.680Z,14.70
2022-09-17T11:03:09.636Z,14.60
2022-09-17T11:05:41.987Z,14.70
2022-09-17T11:08:23.695Z,15.10
2022-09-17T11:11:10.789Z,15.20
2022-09-17T11:13:47.227Z,14.70
2022-09-17T11:16:49.762Z,14.40
2022-09-17T11:19:34.363Z,14.00
2022-09-17T11:22:11.872Z,14.20
2022-09-17T11:24:51.122Z,14.60
2022-09-17T11:27:30.214Z,14.70
2022-09-17T11:30:17.055Z,15.00
2022-09-17T11:32:52.099Z,15.20
2022-09-17T11:36:02.872Z,15.30
2022-09-17T11:38:39.764Z,15.10
2022-09-17T11:41:46.712Z,14.70
2022-09-17T11:44:40.868Z,14.10
2022-09-17T11:47:13.200Z,13.70
2022-09-17T11:49:46.482Z,13.60
2022-09-17T11:52:26.498Z,13.70
2022-09-17T11:55:16.088Z,14.00
2022-09-17T11:57:44.476Z,14.20
2022-09-17T12:00:20.075Z,14.50
2022-09-17T12:03:02.050Z,14.60
2022-09-17T12:05:38.068Z,14.80
2022-09-17T12:08:26.593Z,14.70
2022-09-17T12:11:06.565Z,14.20
2022-09-17T12:13:55.249Z,13.60
2022-09-17T12:16:40.409Z,13.00
2022-09-17T12:19:37.383Z,12.50
2022-09-17T12:22:09.471Z,12.70
2022-09-17T12:24:36.466Z,13.00
2022-09-17T12:27:16.918Z,13.30
2022-09-17T12:30:10.685Z,13.60
2022-09-17T12:33:00.793Z,13.90
2022-09-17T12:35:46.425Z,14.20
2022-09-17T12:38:41.776Z,14.20
2022-09-17T12:41:26.909Z,14.20
2022-09-17T12:44:14.871Z,14.20
2022-09-17T12:46:47.574Z,13.90
2022-09-17T12:49:37.749Z,13.60
2022-09-17T12:52:43.620Z,13.40
2022-09-17T12:55:19.290Z,13.40
2022-09-17T12:58:08.228Z,13.30
2022-09-17T13:00:42.215Z,13.20
2022-09-17T13:03:24.376Z,13.30
2022-09-17T13:06:18.569Z,13.60
2022-09-17T13:09:06.268Z,13.80
2022-09-17T13:11:52.805Z,13.90
2022-09-17T13:14:33.654Z,14.10
2022-09-17T13:17:44.838Z,14.40
2022-09-17T13:20:21.553Z,14.60
2022-09-17T13:22:51.692Z,14.80
2022-09-17T13:25:20.363Z,14.70
2022-09-17T13:27:48.980Z,14.70
2022-09-17T13:30:20.705Z,14.60
2022-09-17T13:32:49.501Z,14.50
2022-09-17T13:35:16.064Z,14.40
2022-09-17T13:37:44.629Z,14.20
2022-09-17T13:40:24.618Z,14.10
2022-09-17T13:42:57.483Z,13.90
2022-09-17T13:45:25.746Z,13.90
2022-09-17T13:48:02.245Z,14.20
2022-09-17T13:50:36.448Z,14.50
2022-09-17T13:53:13.478Z,14.90
2022-09-17T13:55:51.274Z,14.90
2022-09-17T13:58:26.757Z,14.60
2022-09-17T14:01:02.760Z,14.30
2022-09-17T14:03:36.988Z,14.10
2022-09-17T14:06:09.441Z,14.10
2022-09-17T14:08:45.318Z,14.20
2022-09-17T14:11:39.316Z,14.20
2022-09-17T14:14:06.337Z,14.30
2022-09-17T14:16:36.874Z,14.40
2022-09-17T14:19:15.748Z,14.40
2022-09-17T14:21:57.302Z,14.30
2022-09-17T14:24:26.738Z,14.10
2022-09-17T14:27:05.515Z,13.80
2022-09-17T14:29:51.623Z,13.40
2022-09-17T14:32:27.710Z,13.10
2022-09-17T14:34:54.566Z,12.70
2022-09-17T14:37:23.713Z,12.60
2022-09-17T14:39:52.099Z,12.70
2022-09-17T14:42:22.667Z,12.90
2022-09-17T14:45:00.602Z,13.10
2022-09-17T14:47:27.269Z,13.30
2022-09-17T14:49:54.539Z,13.50
2022-09-17T14:52:30.425Z,13.40
2022-09-17T14:55:32.202Z,13.30
2022-09-17T14:58:02.507Z,13.20
2022-09-17T15:00:40.286Z,13.00
2022-09-17T15:03:20.525Z,12.60
2022-09-17T15:05:50.433Z,12.20
2022-09-17T15:08:21.220Z,11.90
2022-09-17T15:11:02.519Z,11.60
2022-09-17T15:13:38.412Z,11.50
2022-09-17T15:16:22.164Z,11.50
2022-09-17T15:19:00.937Z,11.40
2022-09-17T15:21:41.247Z,11.50
2022-09-17T15:24:19.224Z,11.40
2022-09-17T15:26:51.896Z,11.30
2022-09-17T15:29:23.046Z,11.30
2022-09-17T15:31:49.796Z,11.20
2022-09-17T15:34:16.615Z,11.30
2022-09-17T15:37:04.851Z,11.30
2022-09-17T15:39:42.159Z,11.30
2022-09-17T15:42:23.360Z,11.30
2022-09-17T15:44:50.581Z,11.20
2022-09-17T15:47:49.507Z,11.30
2022-09-17T15:50:23.271Z,11.20
2022-09-17T15:52:51.359Z,11.20
2022-09-17T15:55:36.630Z,11.20
2022-09-17T15:58:05.992Z,11.30
2022-09-17T16:00:32.769Z,11.20
2022-09-17T16:03:38.658Z,11.20
2022-09-17T16:06:20.744Z,11.30
2022-09-17T16:08:54.623Z,11.30
2022-09-17T16:11:26.237Z,11.20
2022-09-17T16:13:55.020Z,11.20
2022-09-17T16:16:34.631Z,11.20
2022-09-17T16:19:02.042Z,11.20
2022-09-17T16:21:29.038Z,11.20
2022-09-17T16:23:58.001Z,11.10
2022-09-17T16:26:34.805Z,11.10
2022-09-17T16:29:17.466Z,11.10
2022-09-17T16:31:44.815Z,11.20
2022-09-17T16:34:11.552Z,11.20
2022-09-17T16:36:38.303Z,11.20
2022-09-17T16:39:05.234Z,11.20
2022-09-17T16:41:31.858Z,11.20
2022-09-17T16:43:58.650Z,11.10
2022-09-17T16:46:25.540Z,11.10
2022-09-17T16:48:52.270Z,11.10
2022-09-17T16:51:19.035Z,11.00
2022-09-17T16:53:46.132Z,11.00
2022-09-17T16:56:15.207Z,11.00
2022-09-17T16:58:42.071Z,11.00
2022-09-17T17:01:14.428Z,11.00
2022-09-17T17:03:41.715Z,10.90
2022-09-17T17:06:21.863Z,10.90
2022-09-17T17:08:49.115Z,10.90
2022-09-17T17:11:15.954Z,10.80
2022-09-17T17:13:43.338Z,10.80
2022-09-17T17:16:11.886Z,10.80
2022-09-17T17:18:38.928Z,10.80
2022-09-17T17:21:07.968Z,10.70
2022-09-17T17:23:35.551Z,10.70
2022-09-17T17:26:03.657Z,10.70
2022-09-17T17:28:35.247Z,10.80
2022-09-17T17:31:03.285Z,10.90
2022-09-17T17:33:30.206Z,10.90
2022-09-17T17:36:06.631Z,10.80
2022-09-17T17:38:34.505Z,10.70
2022-09-17T17:41:28.263Z,10.40
2022-09-17T17:43:55.614Z,10.10
2022-09-17T17:46:23.757Z,10.00
2022-09-17T17:48:51.160Z,9.90
2022-09-17T17:51:18.838Z,9.90
2022-09-17T17:53:46.650Z,9.80
2022-09-17T17:56:13.587Z,9.70
2022-09-17T17:58:40.847Z,9.70
2022-09-17T18:01:16.633Z,9.60
2022-09-17T18:03:43.564Z,9.50
2022-09-17T18:06:10.563Z,9.40
2022-09-17T18:08:39.259Z,9.40
2022-09-17T18:11:08.289Z,9.30
2022-09-17T18:13:36.341Z,9.20
2022-09-17T18:16:04.586Z,9.20
2022-09-17T18:18:40.971Z,9.20
2022-09-17T18:21:21.829Z,9.20
2022-09-17T18:23:49.546Z,9.30
2022-09-17T18:26:21.988Z,9.30
2022-09-17T18:28:49.054Z,9.40
2022-09-17T18:31:24.713Z,9.40
2022-09-17T18:34:06.979Z,9.40
2022-09-17T18:36:35.527Z,9.40
2022-09-17T18:41:52.544Z,9.50
2022-09-17T18:44:21.502Z,9.50
2022-09-17T18:46:49.832Z,9.50
2022-09-17T18:49:16.567Z,9.50
2022-09-17T18:51:43.271Z,9.50
2022-09-17T18:54:12.533Z,9.60
2022-09-17T18:56:40.204Z,9.60
2022-09-17T18:59:08.313Z,9.70
2022-09-17T19:01:35.819Z,9.70
2022-09-17T19:04:03.383Z,9.80
2022-09-17T19:06:32.200Z,9.80
2022-09-17T19:09:00.784Z,9.80
2022-09-17T19:11:27.788Z,9.80
2022-09-17T19:13:54.514Z,9.70
2022-09-17T19:16:21.318Z,9.80
2022-09-17T19:18:48.047Z,9.80
2022-09-17T19:21:20.584Z,9.80
2022-09-17T19:23:49.571Z,9.80
2022-09-17T19:26:19.123Z,9.80
2022-09-17T19:28:46.193Z,9.80
2022-09-17T19:31:15.514Z,9.80
2022-09-17T19:33:42.929Z,9.80
2022-09-17T19:36:15.611Z,9.80
2022-09-17T19:38:42.708Z,9.80
2022-09-17T19:41:16.463Z,9.90
2022-09-17T19:43:44.999Z,9.90
2022-09-17T19:46:14.299Z,9.90
2022-09-17T19:48:44.596Z,10.00
2022-09-17T19:51:11.579Z,9.90
2022-09-17T19:53:38.233Z,9.90
2022-09-17T19:56:06.514Z,9.90
2022-09-17T19:58:33.120Z,10.00
2022-09-17T20:01:00.088Z,10.00
2022-09-17T20:03:26.934Z,9.90
2022-09-17T20:06:05.543Z,9.90
2022-09-17T20:08:32.571Z,10.00
2022-09-17T20:11:07.451Z,10.00
2022-09-17T20:13:34.770Z,10.00
2022-09-17T20:16:10.682Z,9.90
2022-09-17T20:18:37.456Z,9.90
2022-09-17T20:21:12.352Z,9.90
2022-09-17T20:23:39.311Z,9.90
2022-09-17T20:26:06.425Z,9.90
2022-09-17T20:28:33.672Z,9.80
2022-09-17T20:31:25.028Z,9.90
2022-09-17T20:33:53.145Z,9.80
2022-09-17T20:36:22.447Z,9.70
2022-09-17T20:41:40.387Z,9.80
2022-09-17T20:44:07.745Z,9.80
2022-09-17T20:46:34.745Z,9.80
2022-09-17T20:49:01.510Z,9.80
2022-09-17T20:51:30.277Z,9.70
2022-09-17T20:53:57.693Z,9.70
2022-09-17T20:56:33.101Z,9.80
2022-09-17T20:59:13.320Z,9.80
2022-09-17T21:01:44.451Z,9.80
2022-09-17T21:04:13.639Z,9.80
2022-09-17T21:06:44.165Z,9.90
2022-09-17T21:09:12.274Z,9.80
2022-09-17T21:11:39.022Z,9.90
2022-09-17T21:14:05.806Z,9.80
2022-09-17T21:16:32.661Z,9.90
2022-09-17T21:19:02.861Z,9.90
2022-09-17T21:21:29.832Z,10.00
2022-09-17T21:24:01.135Z,10.10
2022-09-17T21:26:28.451Z,10.00
2022-09-17T21:28:56.777Z,10.10
2022-09-17T21:31:31.023Z,10.00
2022-09-17T21:34:01.149Z,10.10
2022-09-17T21:36:29.863Z,10.00
2022-09-17T21:39:02.488Z,9.90
2022-09-17T21:41:29.643Z,9.90
2022-09-17T21:43:56.329Z,9.90
2022-09-17T21:46:28.910Z,9.80
2022-09-17T21:48:58.292Z,9.80
2022-09-17T21:51:30.302Z,9.80
2022-09-17T21:54:00.154Z,9.70
2022-09-17T21:56:27.664Z,9.70
2022-09-17T21:58:56.423Z,9.70
2022-09-17T22:01:28.302Z,9.70
2022-09-17T22:03:55.653Z,9.70
2022-09-17T22:06:27.837Z,9.60
2022-09-17T22:08:56.079Z,9.70
2022-09-17T22:11:31.194Z,9.60
2022-09-17T22:14:08.985Z,9.60
2022-09-17T22:16:37.918Z,9.60
2022-09-17T22:19:05.586Z,9.60
2022-09-17T22:21:35.055Z,9.60
2022-09-17T22:24:03.199Z,9.60
2022-09-17T22:26:32.362Z,9.60
2022-09-17T22:29:04.330Z,9.60
2022-09-17T22:31:31.449Z,9.70
2022-09-17T22:33:58.487Z,9.70
2022-09-17T22:36:27.413Z,9.70
2022-09-17T22:38:56.464Z,9.70
2022-09-17T22:41:26.137Z,9.70
2022-09-17T22:43:57.771Z,9.70
2022-09-17T22:46:33.329Z,9.70
2022-09-17T22:49:00.222Z,9.70
2022-09-17T22:51:28.267Z,9.70
2022-09-17T22:53:55.350Z,9.60
2022-09-17T22:56:23.328Z,9.60
2022-09-17T22:58:50.530Z,9.60
2022-09-17T23:01:23.816Z,9.60
2022-09-17T23:03:53.290Z,9.60
2022-09-17T23:06:22.171Z,9.60
2022-09-17T23:08:48.771Z,9.60
2022-09-17T23:11:18.981Z,9.50
2022-09-17T23:13:45.735Z,9.50
2022-09-17T23:16:12.496Z,9.50
2022-09-17T23:18:39.195Z,9.60
2022-09-17T23:21:14.787Z,9.60
2022-09-17T23:23:42.883Z,9.70
2022-09-17T23:26:18.916Z,9.60
2022-09-17T23:28:46.207Z,9.70
2022-09-17T23:31:21.431Z,9.70
2022-09-17T23:33:48.849Z,9.70
2022-09-17T23:36:21.650Z,9.70
2022-09-17T23:38:49.536Z,9.70
2022-09-17T23:41:20.193Z,9.70
2022-09-17T23:43:49.564Z,9.70
2022-09-17T23:46:17.267Z,9.70
2022-09-17T23:48:44.661Z,9.60
2022-09-17T23:51:11.355Z,9.60
2022-09-17T23:53:38.320Z,9.60
2022-09-17T23:56:12.753Z,9.50
2022-09-17T23:58:39.902Z,9.50
